Laida — EAVE — position and weather

sailwx.info

Track history (hours):
 
Tides and Currents Weather Stations Pressure Air Temp Water Temp Dewpoint Dewpoint Depression Visibility Wind Speed Wind Dir Waves Ship Positions

Laida

Last reported at 2016-Nov-28 07:31 UTC. Time now 2016-Dec-06 21:49 UTC.
Position N 35°58' W 005°28'.
Warning: this ship's position is 8 days out of date.

Length 100 m; draft 6.5 m.

Type: Ship (hazmat cat D). MMSI: 224509000.

Date/timePositionNaut miles runAvg speedWind from/ knotsBaromVisibWave heightAir tempDewpointWater temp
2016-Nov-28 07:31N 35°58' W 005°28'258 9.9
2016-Nov-27 05:33N 38°17' W 010°01'3711.1
2016-Nov-27 02:13N 38°54' W 010°07'1811.0
2016-Nov-27 00:33N 39°12' W 010°06'331 8.4
2016-Nov-25 09:17N 43°48' W 006°01'1011.2
2016-Nov-25 08:24N 43°47' W 005°48'7 6.5
2016-Nov-25 07:17N 43°46' W 005°38'7 9.1
2016-Nov-25 06:33N 43°45' W 005°29'16210.6
2016-Nov-24 15:17N 43°33' W 001°45'6 8.5
2016-Nov-24 14:33N 43°33' W 001°37'3 0.1
2016-Nov-23 14:21N 43°32' W 001°32'6 8.0
2016-Nov-23 13:33N 43°30' W 001°41'1 0.5
2016-Nov-23 12:34N 43°30' W 001°41'14410.1
2016-Nov-22 22:18N 45°53' W 001°36'16 9.2
2016-Nov-22 20:33N 46°06' W 001°22'7 6.8
2016-Nov-22 19:33N 46°10' W 001°14'0 0.0
2016-Nov-22 17:31N 46°10' W 001°14'0 0.0
2016-Nov-22 16:28N 46°10' W 001°14'0 0.0
2016-Nov-22 15:28N 46°10' W 001°14'0 0.0
2016-Nov-22 14:31N 46°10' W 001°14'0 0.0
2016-Nov-22 13:31N 46°10' W 001°14'0 0.0
2016-Nov-22 10:25N 46°10' W 001°14'0 0.0
2016-Nov-22 09:31N 46°10' W 001°14'0 0.0
2016-Nov-22 08:25N 46°10' W 001°14'0 0.0
2016-Nov-22 07:28N 46°10' W 001°14'0 0.0
2016-Nov-22 05:28N 46°10' W 001°14'0 0.0
2016-Nov-22 04:31N 46°10' W 001°14'0 0.0
2016-Nov-22 03:31N 46°10' W 001°14'0 0.0
2016-Nov-22 02:31N 46°10' W 001°14'0 0.0
2016-Nov-21 23:31N 46°10' W 001°14'0 0.0
2016-Nov-21 21:31N 46°10' W 001°14'0 0.0
2016-Nov-21 17:31N 46°10' W 001°14'0 0.0
2016-Nov-21 14:28N 46°10' W 001°14'0 0.0
2016-Nov-21 13:31N 46°10' W 001°14'0 0.0
2016-Nov-21 12:25N 46°10' W 001°14'0 0.0
2016-Nov-21 11:28N 46°10' W 001°14'0 0.0
2016-Nov-21 10:19N 46°10' W 001°14'0 0.0
2016-Nov-21 08:31N 46°10' W 001°14'0 0.0
2016-Nov-21 07:31N 46°10' W 001°14'0 0.0
2016-Nov-21 05:28N 46°10' W 001°14'0 0.0
2016-Nov-21 04:31N 46°10' W 001°14'0 0.0
2016-Nov-21 02:28N 46°10' W 001°14'0 0.0
2016-Nov-21 00:31N 46°10' W 001°14'0 0.0
2016-Nov-20 22:31N 46°10' W 001°14'0 0.0
2016-Nov-20 21:28N 46°10' W 001°14'0 0.0
2016-Nov-20 17:31N 46°10' W 001°14'0 0.0
2016-Nov-20 16:31N 46°10' W 001°14'0 0.0
2016-Nov-20 14:33N 46°10' W 001°14'3 2.6
2016-Nov-20 13:33N 46°07' W 001°15'8 8.2
2016-Nov-20 12:32N 46°07' W 001°27'  
Track history (hours):
 
Tides and Currents Weather Stations Pressure Air Temp Water Temp Dewpoint Dewpoint Depression Visibility Wind Speed Wind Dir Waves Ship Positions

Laida

Last reported at 2016-Nov-28 07:31 UTC. Time now 2016-Dec-06 21:49 UTC.
Position N 35°58' W 005°28'.
Warning: this ship's position is 8 days out of date.

Length 100 m; draft 6.5 m.

Type: Ship (hazmat cat D). MMSI: 224509000.

Date/timePositionNaut miles runAvg speedWind from/ knotsBaromVisibWave heightAir tempDewpointWater temp
2016-Nov-28 07:31N 35°58' W 005°28'258 9.9
2016-Nov-27 05:33N 38°17' W 010°01'3711.1
2016-Nov-27 02:13N 38°54' W 010°07'1811.0
2016-Nov-27 00:33N 39°12' W 010°06'331 8.4
2016-Nov-25 09:17N 43°48' W 006°01'1011.2
2016-Nov-25 08:24N 43°47' W 005°48'7 6.5
2016-Nov-25 07:17N 43°46' W 005°38'7 9.1
2016-Nov-25 06:33N 43°45' W 005°29'16210.6
2016-Nov-24 15:17N 43°33' W 001°45'6 8.5
2016-Nov-24 14:33N 43°33' W 001°37'3 0.1
2016-Nov-23 14:21N 43°32' W 001°32'6 8.0
2016-Nov-23 13:33N 43°30' W 001°41'1 0.5
2016-Nov-23 12:34N 43°30' W 001°41'14410.1
2016-Nov-22 22:18N 45°53' W 001°36'16 9.2
2016-Nov-22 20:33N 46°06' W 001°22'7 6.8
2016-Nov-22 19:33N 46°10' W 001°14'0 0.0
2016-Nov-22 17:31N 46°10' W 001°14'0 0.0
2016-Nov-22 16:28N 46°10' W 001°14'0 0.0
2016-Nov-22 15:28N 46°10' W 001°14'0 0.0
2016-Nov-22 14:31N 46°10' W 001°14'0 0.0
2016-Nov-22 13:31N 46°10' W 001°14'0 0.0
2016-Nov-22 10:25N 46°10' W 001°14'0 0.0
2016-Nov-22 09:31N 46°10' W 001°14'0 0.0
2016-Nov-22 08:25N 46°10' W 001°14'0 0.0
2016-Nov-22 07:28N 46°10' W 001°14'0 0.0
2016-Nov-22 05:28N 46°10' W 001°14'0 0.0
2016-Nov-22 04:31N 46°10' W 001°14'0 0.0
2016-Nov-22 03:31N 46°10' W 001°14'0 0.0
2016-Nov-22 02:31N 46°10' W 001°14'0 0.0
2016-Nov-21 23:31N 46°10' W 001°14'0 0.0
2016-Nov-21 21:31N 46°10' W 001°14'0 0.0
2016-Nov-21 17:31N 46°10' W 001°14'0 0.0
2016-Nov-21 14:28N 46°10' W 001°14'0 0.0
2016-Nov-21 13:31N 46°10' W 001°14'0 0.0
2016-Nov-21 12:25N 46°10' W 001°14'0 0.0
2016-Nov-21 11:28N 46°10' W 001°14'0 0.0
2016-Nov-21 10:19N 46°10' W 001°14'0 0.0
2016-Nov-21 08:31N 46°10' W 001°14'0 0.0
2016-Nov-21 07:31N 46°10' W 001°14'0 0.0
2016-Nov-21 05:28N 46°10' W 001°14'0 0.0
2016-Nov-21 04:31N 46°10' W 001°14'0 0.0
2016-Nov-21 02:28N 46°10' W 001°14'0 0.0
2016-Nov-21 00:31N 46°10' W 001°14'0 0.0
2016-Nov-20 22:31N 46°10' W 001°14'0 0.0
2016-Nov-20 21:28N 46°10' W 001°14'0 0.0
2016-Nov-20 17:31N 46°10' W 001°14'0 0.0
2016-Nov-20 16:31N 46°10' W 001°14'0 0.0
2016-Nov-20 14:33N 46°10' W 001°14'3 2.6
2016-Nov-20 13:33N 46°07' W 001°15'8 8.2
2016-Nov-20 12:32N 46°07' W 001°27'  

Dump ship's entire track history